sensor_id;sensor_type;location;lat;lon;timestamp;pressure;altitude;pressure_sealevel;temperature;humidity
13968;BME280;39536;52.198;9.920;2023-07-02T00:00:40;99663.56;;;16.81;100.00
13968;BME280;39536;52.198;9.920;2023-07-02T00:03:06;99669.16;;;16.77;100.00
13968;BME280;39536;52.198;9.920;2023-07-02T00:05:33;99671.66;;;16.78;100.00
13968;BME280;39536;52.198;9.920;2023-07-02T00:07:59;99665.75;;;16.75;100.00
13968;BME280;39536;52.198;9.920;2023-07-02T00:10:26;99665.47;;;16.79;100.00
13968;BME280;39536;52.198;9.920;2023-07-02T00:12:54;99674.00;;;16.70;100.00
13968;BME280;39536;52.198;9.920;2023-07-02T00:15:20;99669.66;;;16.69;100.00
13968;BME280;39536;52.198;9.920;2023-07-02T00:17:47;99674.19;;;16.80;100.00
13968;BME280;39536;52.198;9.920;2023-07-02T00:20:13;99672.03;;;16.98;100.00
13968;BME280;39536;52.198;9.920;2023-07-02T00:22:42;99672.25;;;16.95;100.00
13968;BME280;39536;52.198;9.920;2023-07-02T00:25:09;99668.66;;;16.96;100.00
13968;BME280;39536;52.198;9.920;2023-07-02T00:27:36;99670.41;;;17.08;100.00
13968;BME280;39536;52.198;9.920;2023-07-02T00:30:06;99674.38;;;17.14;100.00
13968;BME280;39536;52.198;9.920;2023-07-02T00:32:33;99671.28;;;17.20;100.00
13968;BME280;39536;52.198;9.920;2023-07-02T00:34:59;99662.31;;;17.22;100.00
13968;BME280;39536;52.198;9.920;2023-07-02T00:37:26;99663.03;;;17.24;100.00
13968;BME280;39536;52.198;9.920;2023-07-02T00:39:52;99669.97;;;17.25;100.00
13968;BME280;39536;52.198;9.920;2023-07-02T00:42:19;99665.50;;;17.15;100.00
13968;BME280;39536;52.198;9.920;2023-07-02T00:44:48;99669.09;;;17.14;100.00
13968;BME280;39536;52.198;9.920;2023-07-02T00:47:19;99670.41;;;17.08;100.00
13968;BME280;39536;52.198;9.920;2023-07-02T00:49:45;99671.28;;;17.20;100.00
13968;BME280;39536;52.198;9.920;2023-07-02T00:52:12;99674.47;;;16.88;100.00
13968;BME280;39536;52.198;9.920;2023-07-02T00:54:38;99674.47;;;16.88;100.00
13968;BME280;39536;52.198;9.920;2023-07-02T00:57:06;99670.69;;;16.92;100.00
13968;BME280;39536;52.198;9.920;2023-07-02T00:59:33;99667.66;;;16.85;100.00
13968;BME280;39536;52.198;9.920;2023-07-02T01:02:00;99668.19;;;16.78;100.00
13968;BME280;39536;52.198;9.920;2023-07-02T01:04:28;99671.34;;;16.83;100.00
13968;BME280;39536;52.198;9.920;2023-07-02T01:06:55;99668.31;;;16.76;100.00
13968;BME280;39536;52.198;9.920;2023-07-02T01:09:23;99667.03;;;16.69;100.00
13968;BME280;39536;52.198;9.920;2023-07-02T01:11:53;99664.97;;;16.61;100.00
13968;BME280;39536;52.198;9.920;2023-07-02T01:14:24;99670.28;;;16.73;100.00
13968;BME280;39536;52.198;9.920;2023-07-02T01:16:53;99664.09;;;16.74;100.00
13968;BME280;39536;52.198;9.920;2023-07-02T01:19:22;99666.16;;;16.57;100.00
13968;BME280;39536;52.198;9.920;2023-07-02T01:21:53;99673.88;;;16.72;100.00
13968;BME280;39536;52.198;9.920;2023-07-02T01:24:19;99669.56;;;16.71;100.00
13968;BME280;39536;52.198;9.920;2023-07-02T01:26:46;99660.03;;;16.57;100.00
13968;BME280;39536;52.198;9.920;2023-07-02T01:29:14;99657.81;;;16.76;100.00
13968;BME280;39536;52.198;9.920;2023-07-02T01:31:41;99648.22;;;16.75;100.00
13968;BME280;39536;52.198;9.920;2023-07-02T01:34:07;99647.66;;;16.83;100.00
13968;BME280;39536;52.198;9.920;2023-07-02T01:36:34;99640.03;;;16.67;100.00
13968;BME280;39536;52.198;9.920;2023-07-02T01:39:02;99640.91;;;16.55;100.00
13968;BME280;39536;52.198;9.920;2023-07-02T01:41:29;99645.16;;;16.69;100.00
13968;BME280;39536;52.198;9.920;2023-07-02T01:43:56;99662.19;;;16.76;100.00
13968;BME280;39536;52.198;9.920;2023-07-02T01:46:22;99667.56;;;16.74;100.00
13968;BME280;39536;52.198;9.920;2023-07-02T01:48:49;99661.38;;;16.75;100.00
13968;BME280;39536;52.198;9.920;2023-07-02T01:51:15;99662.06;;;16.90;100.00
13968;BME280;39536;52.198;9.920;2023-07-02T01:53:42;99670.97;;;16.76;100.00
13968;BME280;39536;52.198;9.920;2023-07-02T01:56:10;99668.31;;;16.76;100.00
13968;BME280;39536;52.198;9.920;2023-07-02T01:58:36;99675.34;;;16.63;100.00
13968;BME280;39536;52.198;9.920;2023-07-02T02:01:03;99677.19;;;16.50;100.00
13968;BME280;39536;52.198;9.920;2023-07-02T02:03:29;99675.75;;;16.46;100.00
13968;BME280;39536;52.198;9.920;2023-07-02T02:05:56;99684.88;;;16.53;100.00
13968;BME280;39536;52.198;9.920;2023-07-02T02:08:23;99688.22;;;16.55;100.00
13968;BME280;39536;52.198;9.920;2023-07-02T02:10:49;99677.53;;;16.45;100.00
13968;BME280;39536;52.198;9.920;2023-07-02T02:13:17;99679.19;;;16.46;100.00
13968;BME280;39536;52.198;9.920;2023-07-02T02:15:44;99689.75;;;16.33;100.00
13968;BME280;39536;52.198;9.920;2023-07-02T02:18:11;99683.75;;;16.31;100.00
13968;BME280;39536;52.198;9.920;2023-07-02T02:20:38;99686.56;;;16.41;100.00
13968;BME280;39536;52.198;9.920;2023-07-02T02:23:04;99686.34;;;16.44;100.00
13968;BME280;39536;52.198;9.920;2023-07-02T02:25:31;99690.19;;;16.27;100.00
13968;BME280;39536;52.198;9.920;2023-07-02T02:27:58;99693.53;;;16.29;100.00
13968;BME280;39536;52.198;9.920;2023-07-02T02:30:25;99692.47;;;16.32;100.00
13968;BME280;39536;52.198;9.920;2023-07-02T02:32:52;99688.34;;;16.40;100.00
13968;BME280;39536;52.198;9.920;2023-07-02T02:35:19;99689.94;;;16.43;100.00
13968;BME280;39536;52.198;9.920;2023-07-02T02:37:45;99683.22;;;16.39;100.00
13968;BME280;39536;52.198;9.920;2023-07-02T02:40:12;99697.41;;;16.36;100.00
13968;BME280;39536;52.198;9.920;2023-07-02T02:42:39;99689.97;;;16.30;100.00
13968;BME280;39536;52.198;9.920;2023-07-02T02:45:06;99694.78;;;16.36;100.00
13968;BME280;39536;52.198;9.920;2023-07-02T02:47:34;99693.75;;;16.26;100.00
13968;BME280;39536;52.198;9.920;2023-07-02T02:50:01;99690.25;;;16.38;100.00
13968;BME280;39536;52.198;9.920;2023-07-02T02:52:28;99686.47;;;16.43;100.00
13968;BME280;39536;52.198;9.920;2023-07-02T02:54:54;99684.16;;;16.38;100.00
13968;BME280;39536;52.198;9.920;2023-07-02T02:57:21;99684.56;;;16.45;100.00
13968;BME280;39536;52.198;9.920;2023-07-02T02:59:47;99679.28;;;16.45;100.00
13968;BME280;39536;52.198;9.920;2023-07-02T03:02:14;99686.03;;;16.49;100.00
13968;BME280;39536;52.198;9.920;2023-07-02T03:04:42;99672.50;;;16.42;100.00
13968;BME280;39536;52.198;9.920;2023-07-02T03:07:09;99677.31;;;16.48;100.00
13968;BME280;39536;52.198;9.920;2023-07-02T03:09:36;99679.59;;;16.53;100.00
13968;BME280;39536;52.198;9.920;2023-07-02T03:12:03;99682.31;;;16.64;100.00
13968;BME280;39536;52.198;9.920;2023-07-02T03:14:30;99686.53;;;16.67;100.00
13968;BME280;39536;52.198;9.920;2023-07-02T03:16:56;99674.53;;;16.62;100.00
13968;BME280;39536;52.198;9.920;2023-07-02T03:19:23;99682.19;;;16.66;100.00
13968;BME280;39536;52.198;9.920;2023-07-02T03:21:51;99678.84;;;16.63;100.00
13968;BME280;39536;52.198;9.920;2023-07-02T03:24:18;99681.16;;;16.68;100.00
13968;BME280;39536;52.198;9.920;2023-07-02T03:26:45;99673.13;;;16.70;100.00
13968;BME280;39536;52.198;9.920;2023-07-02T03:29:12;99676.09;;;16.65;100.00
13968;BME280;39536;52.198;9.920;2023-07-02T03:31:39;99666.03;;;16.59;100.00
13968;BME280;39536;52.198;9.920;2023-07-02T03:34:07;99670.00;;;16.65;100.00
13968;BME280;39536;52.198;9.920;2023-07-02T03:36:34;99666.47;;;16.53;100.00
13968;BME280;39536;52.198;9.920;2023-07-02T03:39:02;99670.53;;;16.57;100.00
13968;BME280;39536;52.198;9.920;2023-07-02T03:41:29;99666.75;;;16.61;100.00
13968;BME280;39536;52.198;9.920;2023-07-02T03:43:55;99665.06;;;16.60;100.00
13968;BME280;39536;52.198;9.920;2023-07-02T03:46:22;99671.47;;;16.69;100.00
13968;BME280;39536;52.198;9.920;2023-07-02T03:48:49;99670.50;;;16.70;100.00
13968;BME280;39536;52.198;9.920;2023-07-02T03:51:16;99671.25;;;16.72;100.00
13968;BME280;39536;52.198;9.920;2023-07-02T03:53:43;99668.31;;;16.76;100.00
13968;BME280;39536;52.198;9.920;2023-07-02T03:56:10;99669.25;;;16.75;100.00
13968;BME280;39536;52.198;9.920;2023-07-02T03:58:37;99663.56;;;16.81;100.00
13968;BME280;39536;52.198;9.920;2023-07-02T04:01:05;99674.91;;;16.82;100.00
13968;BME280;39536;52.198;9.920;2023-07-02T04:03:32;99677.16;;;16.75;100.00
13968;BME280;39536;52.198;9.920;2023-07-02T04:05:59;99679.03;;;16.73;100.00
13968;BME280;39536;52.198;9.920;2023-07-02T04:08:25;99674.81;;;16.71;100.00
13968;BME280;39536;52.198;9.920;2023-07-02T04:10:53;99680.91;;;16.71;100.00
13968;BME280;39536;52.198;9.920;2023-07-02T04:13:21;99684.09;;;16.76;100.00
13968;BME280;39536;52.198;9.920;2023-07-02T04:15:48;99683.66;;;16.82;100.00
13968;BME280;39536;52.198;9.920;2023-07-02T04:18:14;99684.72;;;16.67;100.00
13968;BME280;39536;52.198;9.920;2023-07-02T04:20:41;99689.25;;;16.78;100.00
13968;BME280;39536;52.198;9.920;2023-07-02T04:23:07;99681.97;;;16.81;100.00
13968;BME280;39536;52.198;9.920;2023-07-02T04:25:34;99688.56;;;16.87;100.00
13968;BME280;39536;52.198;9.920;2023-07-02T04:28:01;99688.28;;;16.66;100.00
13968;BME280;39536;52.198;9.920;2023-07-02T04:30:29;99690.91;;;16.79;100.00
13968;BME280;39536;52.198;9.920;2023-07-02T04:32:55;99687.13;;;16.70;100.00
13968;BME280;39536;52.198;9.920;2023-07-02T04:35:22;99689.03;;;16.68;100.00
13968;BME280;39536;52.198;9.920;2023-07-02T04:37:48;99692.19;;;16.73;100.00
13968;BME280;39536;52.198;9.920;2023-07-02T04:40:15;99685.44;;;16.69;100.00
13968;BME280;39536;52.198;9.920;2023-07-02T04:42:42;99695.34;;;16.78;100.00
13968;BME280;39536;52.198;9.920;2023-07-02T04:45:13;99696.38;;;16.76;100.00
13968;BME280;39536;52.198;9.920;2023-07-02T04:47:42;99698.69;;;16.80;100.00
13968;BME280;39536;52.198;9.920;2023-07-02T04:50:09;99700.16;;;16.84;100.00
13968;BME280;39536;52.198;9.920;2023-07-02T04:52:35;99718.91;;;16.80;100.00
13968;BME280;39536;52.198;9.920;2023-07-02T04:55:02;99725.72;;;16.70;100.00
13968;BME280;39536;52.198;9.920;2023-07-02T04:57:29;99754.06;;;16.40;100.00
13968;BME280;39536;52.198;9.920;2023-07-02T04:59:56;99769.09;;;15.87;100.00
13968;BME280;39536;52.198;9.920;2023-07-02T05:02:22;99765.09;;;15.00;100.00
13968;BME280;39536;52.198;9.920;2023-07-02T05:04:50;99764.09;;;14.46;100.00
13968;BME280;39536;52.198;9.920;2023-07-02T05:07:17;99765.66;;;14.48;100.00
13968;BME280;39536;52.198;9.920;2023-07-02T05:09:43;99756.88;;;14.64;100.00
13968;BME280;39536;52.198;9.920;2023-07-02T05:12:10;99752.09;;;14.85;100.00
13968;BME280;39536;52.198;9.920;2023-07-02T05:14:37;99748.81;;;14.81;100.00
13968;BME280;39536;52.198;9.920;2023-07-02T05:17:03;99750.16;;;14.74;100.00
13968;BME280;39536;52.198;9.920;2023-07-02T05:19:30;99753.69;;;14.87;100.00
13968;BME280;39536;52.198;9.920;2023-07-02T05:21:58;99749.50;;;14.70;100.00
13968;BME280;39536;52.198;9.920;2023-07-02T05:24:24;99746.13;;;14.68;100.00
13968;BME280;39536;52.198;9.920;2023-07-02T05:26:51;99748.63;;;14.84;100.00
13968;BME280;39536;52.198;9.920;2023-07-02T05:29:18;99752.34;;;14.94;100.00
13968;BME280;39536;52.198;9.920;2023-07-02T05:31:45;99746.00;;;14.98;100.00
13968;BME280;39536;52.198;9.920;2023-07-02T05:34:11;99752.22;;;14.83;100.00
13968;BME280;39536;52.198;9.920;2023-07-02T05:36:38;99743.59;;;14.81;100.00
13968;BME280;39536;52.198;9.920;2023-07-02T05:39:06;99749.47;;;14.85;100.00
13968;BME280;39536;52.198;9.920;2023-07-02T05:41:33;99753.19;;;14.95;100.00
13968;BME280;39536;52.198;9.920;2023-07-02T05:44:00;99753.31;;;14.93;100.00
13968;BME280;39536;52.198;9.920;2023-07-02T05:46:26;99760.41;;;15.06;100.00
13968;BME280;39536;52.198;9.920;2023-07-02T05:48:53;99766.09;;;15.12;100.00
13968;BME280;39536;52.198;9.920;2023-07-02T05:51:21;99774.97;;;15.24;100.00
13968;BME280;39536;52.198;9.920;2023-07-02T05:53:48;99773.41;;;15.07;100.00
13968;BME280;39536;52.198;9.920;2023-07-02T05:56:16;99773.34;;;14.94;100.00
13968;BME280;39536;52.198;9.920;2023-07-02T05:58:43;99772.88;;;15.02;100.00
13968;BME280;39536;52.198;9.920;2023-07-02T06:01:10;99774.13;;;15.23;100.00
13968;BME280;39536;52.198;9.920;2023-07-02T06:03:36;99776.59;;;15.39;100.00
13968;BME280;39536;52.198;9.920;2023-07-02T06:06:03;99777.03;;;15.46;100.00
13968;BME280;39536;52.198;9.920;2023-07-02T06:08:30;99780.78;;;15.42;100.00
13968;BME280;39536;52.198;9.920;2023-07-02T06:10:56;99772.47;;;15.62;100.00
13968;BME280;39536;52.198;9.920;2023-07-02T06:13:24;99773.56;;;15.73;100.00
13968;BME280;39536;52.198;9.920;2023-07-02T06:15:51;99777.47;;;15.67;100.00
13968;BME280;39536;52.198;9.920;2023-07-02T06:18:17;99772.53;;;15.75;100.00
13968;BME280;39536;52.198;9.920;2023-07-02T06:20:44;99768.63;;;15.68;100.00
13968;BME280;39536;52.198;9.920;2023-07-02T06:23:10;99777.16;;;15.72;100.00
13968;BME280;39536;52.198;9.920;2023-07-02T06:25:37;99778.94;;;15.71;100.00
13968;BME280;39536;52.198;9.920;2023-07-02T06:28:03;99781.34;;;15.74;100.00
13968;BME280;39536;52.198;9.920;2023-07-02T06:30:31;99776.31;;;15.84;100.00
13968;BME280;39536;52.198;9.920;2023-07-02T06:32:58;99777.06;;;15.86;100.00
13968;BME280;39536;52.198;9.920;2023-07-02T06:35:25;99778.13;;;15.83;100.00
13968;BME280;39536;52.198;9.920;2023-07-02T06:37:51;99777.94;;;15.99;100.00
13968;BME280;39536;52.198;9.920;2023-07-02T06:40:20;99773.53;;;16.25;100.00
13968;BME280;39536;52.198;9.920;2023-07-02T06:42:47;99775.09;;;16.40;100.00
13968;BME280;39536;52.198;9.920;2023-07-02T06:45:14;99773.63;;;16.49;100.00
13968;BME280;39536;52.198;9.920;2023-07-02T06:47:42;99794.88;;;16.59;100.00
13968;BME280;39536;52.198;9.920;2023-07-02T06:50:09;99786.75;;;16.62;100.00
13968;BME280;39536;52.198;9.920;2023-07-02T06:52:36;99793.16;;;16.71;100.00
13968;BME280;39536;52.198;9.920;2023-07-02T06:55:03;99791.41;;;16.58;100.00
13968;BME280;39536;52.198;9.920;2023-07-02T06:57:30;99793.69;;;16.63;100.00
13968;BME280;39536;52.198;9.920;2023-07-02T06:59:57;99798.03;;;16.77;100.00
13968;BME280;39536;52.198;9.920;2023-07-02T07:02:25;99795.97;;;17.06;100.00
13968;BME280;39536;52.198;9.920;2023-07-02T07:04:53;99813.47;;;16.94;100.00
13968;BME280;39536;52.198;9.920;2023-07-02T07:07:19;99827.47;;;16.95;100.00
13968;BME280;39536;52.198;9.920;2023-07-02T07:09:46;99802.06;;;17.06;100.00
13968;BME280;39536;52.198;9.920;2023-07-02T07:12:13;99818.47;;;17.23;100.00
13968;BME280;39536;52.198;9.920;2023-07-02T07:14:39;99821.03;;;17.36;100.00
13968;BME280;39536;52.198;9.920;2023-07-02T07:17:06;99804.84;;;17.29;100.00
13968;BME280;39536;52.198;9.920;2023-07-02T07:19:33;99832.00;;;17.29;100.00
13968;BME280;39536;52.198;9.920;2023-07-02T07:22:01;99821.13;;;17.34;100.00
13968;BME280;39536;52.198;9.920;2023-07-02T07:24:27;99817.16;;;17.28;100.00
13968;BME280;39536;52.198;9.920;2023-07-02T07:26:54;99823.34;;;17.40;100.00
13968;BME280;39536;52.198;9.920;2023-07-02T07:29:21;99823.22;;;17.42;100.00
13968;BME280;39536;52.198;9.920;2023-07-02T07:31:48;99821.47;;;17.53;100.00
13968;BME280;39536;52.198;9.920;2023-07-02T07:34:15;99820.78;;;17.51;100.00
13968;BME280;39536;52.198;9.920;2023-07-02T07:36:41;99837.72;;;17.47;100.00
13968;BME280;39536;52.198;9.920;2023-07-02T07:39:09;99828.50;;;17.42;100.00
13968;BME280;39536;52.198;9.920;2023-07-02T07:41:36;99832.69;;;17.68;100.00
13968;BME280;39536;52.198;9.920;2023-07-02T07:44:02;99828.72;;;17.87;100.00
13968;BME280;39536;52.198;9.920;2023-07-02T07:46:29;99822.25;;;17.80;100.00
13968;BME280;39536;52.198;9.920;2023-07-02T07:48:56;99840.16;;;17.98;100.00
13968;BME280;39536;52.198;9.920;2023-07-02T07:51:22;99827.91;;;17.86;100.00
13968;BME280;39536;52.198;9.920;2023-07-02T07:53:49;99846.59;;;17.70;100.00
13968;BME280;39536;52.198;9.920;2023-07-02T07:56:17;99831.59;;;17.84;100.00
13968;BME280;39536;52.198;9.920;2023-07-02T07:58:43;99837.56;;;17.62;100.00
13968;BME280;39536;52.198;9.920;2023-07-02T08:01:10;99836.34;;;17.78;100.00
13968;BME280;39536;52.198;9.920;2023-07-02T08:03:37;99837.75;;;17.95;100.00
13968;BME280;39536;52.198;9.920;2023-07-02T08:06:04;99841.06;;;17.86;100.00
13968;BME280;39536;52.198;9.920;2023-07-02T08:08:30;99841.75;;;17.77;100.00
13968;BME280;39536;52.198;9.920;2023-07-02T08:10:57;99843.13;;;17.94;100.00
13968;BME280;39536;52.198;9.920;2023-07-02T08:13:25;99844.44;;;17.88;100.00
13968;BME280;39536;52.198;9.920;2023-07-02T08:15:51;99857.00;;;18.20;100.00
13968;BME280;39536;52.198;9.920;2023-07-02T08:18:18;99853.31;;;18.34;100.00
13968;BME280;39536;52.198;9.920;2023-07-02T08:20:44;99862.56;;;18.39;100.00
13968;BME280;39536;52.198;9.920;2023-07-02T08:23:11;99852.50;;;18.56;100.00
13968;BME280;39536;52.198;9.920;2023-07-02T08:25:38;99866.53;;;18.45;100.00
13968;BME280;39536;52.198;9.920;2023-07-02T08:28:04;99868.16;;;18.35;100.00
13968;BME280;39536;52.198;9.920;2023-07-02T08:30:32;99871.59;;;18.13;100.00
13968;BME280;39536;52.198;9.920;2023-07-02T08:32:59;99867.78;;;18.17;100.00
13968;BME280;39536;52.198;9.920;2023-07-02T08:35:25;99882.09;;;18.02;100.00
13968;BME280;39536;52.198;9.920;2023-07-02T08:37:52;99888.22;;;18.02;100.00
13968;BME280;39536;52.198;9.920;2023-07-02T08:40:19;99885.44;;;18.04;100.00
13968;BME280;39536;52.198;9.920;2023-07-02T08:42:46;99906.84;;;17.75;100.00
13968;BME280;39536;52.198;9.920;2023-07-02T08:45:14;99902.22;;;17.66;100.00
13968;BME280;39536;52.198;9.920;2023-07-02T08:47:43;99905.31;;;17.60;100.00
13968;BME280;39536;52.198;9.920;2023-07-02T08:50:10;99889.81;;;17.68;100.00
13968;BME280;39536;52.198;9.920;2023-07-02T08:52:37;99907.28;;;17.69;100.00
13968;BME280;39536;52.198;9.920;2023-07-02T08:55:05;99908.31;;;17.42;100.00
13968;BME280;39536;52.198;9.920;2023-07-02T08:57:31;99905.31;;;17.23;100.00
13968;BME280;39536;52.198;9.920;2023-07-02T08:59:58;99906.13;;;17.36;100.00
13968;BME280;39536;52.198;9.920;2023-07-02T09:02:31;99900.00;;;17.48;100.00
13968;BME280;39536;52.198;9.920;2023-07-02T09:05:00;99899.06;;;17.73;100.00
13968;BME280;39536;52.198;9.920;2023-07-02T09:07:27;99899.78;;;17.88;100.00
13968;BME280;39536;52.198;9.920;2023-07-02T09:09:53;99904.53;;;18.07;100.00
13968;BME280;39536;52.198;9.920;2023-07-02T09:12:24;99906.38;;;17.94;100.00
13968;BME280;39536;52.198;9.920;2023-07-02T09:14:55;99900.84;;;17.86;100.00
13968;BME280;39536;52.198;9.920;2023-07-02T09:17:26;99906.59;;;17.91;100.00
13968;BME280;39536;52.198;9.920;2023-07-02T09:19:54;99894.94;;;18.06;100.00
13968;BME280;39536;52.198;9.920;2023-07-02T09:22:22;99900.75;;;18.22;100.00
13968;BME280;39536;52.198;9.920;2023-07-02T09:24:52;99923.75;;;18.20;100.00
13968;BME280;39536;52.198;9.920;2023-07-02T09:27:19;99926.91;;;18.37;100.00
13968;BME280;39536;52.198;9.920;2023-07-02T09:29:50;99884.53;;;18.62;100.00
13968;BME280;39536;52.198;9.920;2023-07-02T09:32:24;99897.66;;;18.75;100.00
13968;BME280;39536;52.198;9.920;2023-07-02T09:34:53;99895.34;;;18.70;100.00
13968;BME280;39536;52.198;9.920;2023-07-02T09:37:21;99898.28;;;18.79;100.00
13968;BME280;39536;52.198;9.920;2023-07-02T09:39:50;99889.22;;;18.59;100.00
13968;BME280;39536;52.198;9.920;2023-07-02T09:42:16;99922.03;;;18.79;100.00
13968;BME280;39536;52.198;9.920;2023-07-02T09:44:45;99908.13;;;18.88;100.00
13968;BME280;39536;52.198;9.920;2023-07-02T09:47:13;99931.66;;;18.91;100.00
13968;BME280;39536;52.198;9.920;2023-07-02T09:49:45;99910.66;;;19.01;100.00
13968;BME280;39536;52.198;9.920;2023-07-02T09:52:14;99893.22;;;19.09;100.00
13968;BME280;39536;52.198;9.920;2023-07-02T09:54:42;99920.72;;;19.29;100.00
13968;BME280;39536;52.198;9.920;2023-07-02T09:57:09;99925.16;;;19.51;100.00
13968;BME280;39536;52.198;9.920;2023-07-02T09:59:36;99916.78;;;19.35;100.00
13968;BME280;39536;52.198;9.920;2023-07-02T10:02:04;99894.06;;;19.21;100.00
13968;BME280;39536;52.198;9.920;2023-07-02T10:04:39;99964.91;;;19.27;100.00
13968;BME280;39536;52.198;9.920;2023-07-02T10:07:06;99897.44;;;19.23;100.00
13968;BME280;39536;52.198;9.920;2023-07-02T10:09:37;99928.41;;;19.32;100.00
13968;BME280;39536;52.198;9.920;2023-07-02T10:12:18;99924.59;;;19.25;100.00
13968;BME280;39536;52.198;9.920;2023-07-02T10:14:46;99923.72;;;19.36;100.00
13968;BME280;39536;52.198;9.920;2023-07-02T10:17:24;99927.41;;;19.78;100.00
13968;BME280;39536;52.198;9.920;2023-07-02T10:19:51;99932.75;;;19.99;100.00
13968;BME280;39536;52.198;9.920;2023-07-02T10:22:18;99931.97;;;20.20;100.00
13968;BME280;39536;52.198;9.920;2023-07-02T10:24:50;99988.91;;;19.92;100.00
13968;BME280;39536;52.198;9.920;2023-07-02T10:27:20;99950.59;;;19.75;100.00
13968;BME280;39536;52.198;9.920;2023-07-02T10:29:49;99956.59;;;19.54;100.00
13968;BME280;39536;52.198;9.920;2023-07-02T10:32:26;99922.50;;;19.51;100.00
13968;BME280;39536;52.198;9.920;2023-07-02T10:34:52;99949.03;;;19.27;100.00
13968;BME280;39536;52.198;9.920;2023-07-02T10:37:19;99946.28;;;18.95;100.00
13968;BME280;39536;52.198;9.920;2023-07-02T10:39:46;99947.97;;;18.61;100.00
13968;BME280;39536;52.198;9.920;2023-07-02T10:42:12;99959.75;;;18.68;100.00
13968;BME280;39536;52.198;9.920;2023-07-02T10:44:50;99944.63;;;19.17;100.00
13968;BME280;39536;52.198;9.920;2023-07-02T10:47:17;99937.28;;;19.54;100.00
13968;BME280;39536;52.198;9.920;2023-07-02T10:49:44;99927.47;;;19.99;100.00
13968;BME280;39536;52.198;9.920;2023-07-02T10:52:11;99946.00;;;20.32;100.00
13968;BME280;39536;52.198;9.920;2023-07-02T10:54:39;99921.47;;;20.29;100.00
13968;BME280;39536;52.198;9.920;2023-07-02T10:57:06;99959.88;;;20.45;100.00
13968;BME280;39536;52.198;9.920;2023-07-02T10:59:33;99942.38;;;20.33;94.66
13968;BME280;39536;52.198;9.920;2023-07-02T11:02:01;99927.91;;;20.69;96.53
13968;BME280;39536;52.198;9.920;2023-07-02T11:04:29;99920.53;;;20.93;97.80
13968;BME280;39536;52.198;9.920;2023-07-02T11:06:55;99932.50;;;20.97;95.94
13968;BME280;39536;52.198;9.920;2023-07-02T11:09:22;99911.63;;;20.52;95.73
13968;BME280;39536;52.198;9.920;2023-07-02T11:11:53;99944.81;;;20.57;95.04
13968;BME280;39536;52.198;9.920;2023-07-02T11:14:30;99929.94;;;20.86;96.45
13968;BME280;39536;52.198;9.920;2023-07-02T11:16:58;99945.19;;;21.25;99.17
13968;BME280;39536;52.198;9.920;2023-07-02T11:19:26;99942.06;;;21.10;95.21
13968;BME280;39536;52.198;9.920;2023-07-02T11:21:54;99935.63;;;20.61;89.07
13968;BME280;39536;52.198;9.920;2023-07-02T11:24:29;99940.31;;;20.36;88.50
13968;BME280;39536;52.198;9.920;2023-07-02T11:26:57;99966.56;;;20.49;92.06
13968;BME280;39536;52.198;9.920;2023-07-02T11:29:23;99962.75;;;20.53;95.51
13968;BME280;39536;52.198;9.920;2023-07-02T11:31:50;99951.56;;;20.17;91.65
13968;BME280;39536;52.198;9.920;2023-07-02T11:34:19;99956.19;;;19.93;98.98
13968;BME280;39536;52.198;9.920;2023-07-02T11:36:47;99966.44;;;20.29;97.85
13968;BME280;39536;52.198;9.920;2023-07-02T11:39:15;99949.91;;;20.37;93.70
13968;BME280;39536;52.198;9.920;2023-07-02T11:41:43;99944.81;;;20.45;91.66
13968;BME280;39536;52.198;9.920;2023-07-02T11:44:09;99938.88;;;20.32;90.22
13968;BME280;39536;52.198;9.920;2023-07-02T11:46:36;99942.16;;;20.57;89.62
13968;BME280;39536;52.198;9.920;2023-07-02T11:49:03;99949.50;;;21.26;91.68
13968;BME280;39536;52.198;9.920;2023-07-02T11:51:30;99957.38;;;20.85;86.63
13968;BME280;39536;52.198;9.920;2023-07-02T11:53:58;99962.00;;;20.51;88.41
13968;BME280;39536;52.198;9.920;2023-07-02T11:56:25;99943.34;;;20.32;94.34
13968;BME280;39536;52.198;9.920;2023-07-02T11:58:51;99947.94;;;20.18;96.72
13968;BME280;39536;52.198;9.920;2023-07-02T12:01:18;99960.31;;;20.29;96.21
13968;BME280;39536;52.198;9.920;2023-07-02T12:03:44;99952.97;;;20.21;96.96
13968;BME280;39536;52.198;9.920;2023-07-02T12:06:11;99971.28;;;20.57;95.28
13968;BME280;39536;52.198;9.920;2023-07-02T12:08:38;99946.63;;;20.56;93.62
13968;BME280;39536;52.198;9.920;2023-07-02T12:11:06;99971.47;;;20.65;91.45
13968;BME280;39536;52.198;9.920;2023-07-02T12:13:32;99968.94;;;20.31;87.54
13968;BME280;39536;52.198;9.920;2023-07-02T12:15:59;99964.94;;;20.04;87.56
13968;BME280;39536;52.198;9.920;2023-07-02T12:18:26;99964.72;;;19.96;91.19
13968;BME280;39536;52.198;9.920;2023-07-02T12:20:52;99963.53;;;19.89;94.68
13968;BME280;39536;52.198;9.920;2023-07-02T12:23:19;99964.47;;;19.99;96.66
13968;BME280;39536;52.198;9.920;2023-07-02T12:25:45;99974.06;;;20.12;98.18
13968;BME280;39536;52.198;9.920;2023-07-02T12:28:14;99966.81;;;20.57;98.51
13968;BME280;39536;52.198;9.920;2023-07-02T12:30:41;99962.56;;;21.17;97.87
13968;BME280;39536;52.198;9.920;2023-07-02T12:33:07;99966.47;;;21.13;91.38
13968;BME280;39536;52.198;9.920;2023-07-02T12:35:34;99965.63;;;21.13;90.41
13968;BME280;39536;52.198;9.920;2023-07-02T12:38:01;99955.94;;;21.02;90.50
13968;BME280;39536;52.198;9.920;2023-07-02T12:40:29;99981.06;;;20.87;90.02
13968;BME280;39536;52.198;9.920;2023-07-02T12:42:55;99968.97;;;20.84;91.21
13968;BME280;39536;52.198;9.920;2023-07-02T12:45:24;99969.31;;;21.01;93.25
13968;BME280;39536;52.198;9.920;2023-07-02T12:47:50;99992.06;;;21.03;92.50
13968;BME280;39536;52.198;9.920;2023-07-02T12:50:17;99996.50;;;21.03;89.79
13968;BME280;39536;52.198;9.920;2023-07-02T12:52:43;99978.81;;;21.03;86.01